Time;durP1;ratioP1;P1;durP2;ratioP2;P2;SDS_P1;SDS_P2;PMS_P1;PMS_P2;Temp;Humidity;BMP_temperature;BMP_pressure;BME280_temperature;BME280_humidity;BME280_pressure;Samples;Min_cycle;Max_cycle;Signal;HPM_P1;HPM_P2
2023/09/16 00:00:58;;;;;;;4.67;3.00;;;14.70;99.90;;;;;;5078377;28;20649;-55
2023/09/16 00:03:31;;;;;;;3.07;2.83;;;14.70;99.90;;;;;;5077712;28;20590;-53
2023/09/16 00:06:02;;;;;;;3.90;3.13;;;14.70;99.90;;;;;;5048675;28;20222;-53
2023/09/16 00:08:34;;;;;;;3.90;3.07;;;14.70;99.90;;;;;;5077885;28;20216;-50
2023/09/16 00:11:02;;;;;;;3.77;3.37;;;14.70;99.90;;;;;;5081734;28;20255;-52
2023/09/16 00:13:31;;;;;;;3.50;3.17;;;14.60;99.90;;;;;;5061710;28;20874;-48
2023/09/16 00:16:00;;;;;;;3.40;2.83;;;14.70;99.90;;;;;;5081325;28;20217;-51
2023/09/16 00:18:30;;;;;;;4.97;2.87;;;14.60;99.90;;;;;;5076603;28;20190;-55
2023/09/16 00:20:58;;;;;;;4.20;3.30;;;14.60;99.90;;;;;;5080908;28;20243;-54
2023/09/16 00:23:28;;;;;;;3.23;2.50;;;14.60;99.90;;;;;;5044260;28;20213;-54
2023/09/16 00:25:59;;;;;;;4.17;3.20;;;14.60;99.90;;;;;;5081356;28;20688;-51
2023/09/16 00:28:27;;;;;;;3.27;2.97;;;14.60;99.90;;;;;;5068087;28;20611;-55
2023/09/16 00:31:01;;;;;;;2.87;2.67;;;14.50;99.90;;;;;;5081748;28;20198;-52
2023/09/16 00:33:30;;;;;;;3.53;3.00;;;14.50;99.90;;;;;;5068257;28;20228;-55
2023/09/16 00:35:58;;;;;;;5.27;3.73;;;14.50;99.90;;;;;;5076904;28;20244;-52
2023/09/16 00:38:29;;;;;;;4.73;3.80;;;14.50;99.90;;;;;;5044235;28;20234;-54
2023/09/16 00:40:57;;;;;;;3.40;3.10;;;14.50;99.90;;;;;;5080018;28;20748;-50
2023/09/16 00:43:29;;;;;;;3.47;3.17;;;14.50;99.90;;;;;;5068888;28;20263;-51
2023/09/16 00:46:00;;;;;;;3.20;2.90;;;14.50;99.90;;;;;;5077677;28;20236;-51
2023/09/16 00:48:31;;;;;;;3.47;3.17;;;14.40;99.90;;;;;;5076415;28;20194;-53
2023/09/16 00:50:59;;;;;;;3.67;3.00;;;14.40;99.90;;;;;;5081622;28;20198;-50
2023/09/16 00:53:28;;;;;;;5.03;3.20;;;14.40;99.90;;;;;;5046545;28;20288;-55
2023/09/16 00:55:56;;;;;;;4.17;3.13;;;14.40;99.90;;;;;;5081744;28;20656;-53
2023/09/16 00:58:29;;;;;;;3.67;3.37;;;14.40;99.90;;;;;;5077077;28;20200;-55
2023/09/16 01:04:01;;;;;;;4.87;3.60;;;14.30;99.90;;;;;;5059316;28;20198;-48
2023/09/16 01:06:32;;;;;;;3.90;3.27;;;14.30;99.90;;;;;;5076785;28;20918;-52
2023/09/16 01:09:00;;;;;;;4.27;3.13;;;14.30;99.90;;;;;;5048853;28;20742;-54
2023/09/16 01:11:33;;;;;;;5.60;3.20;;;14.30;99.90;;;;;;5076676;28;20224;-54
2023/09/16 01:14:01;;;;;;;3.53;3.23;;;14.20;99.90;;;;;;5079576;28;20202;-53
2023/09/16 01:16:37;;;;;;;3.83;3.43;;;14.20;99.90;;;;;;5066993;28;20205;-55
2023/09/16 01:19:23;;;;;;;3.97;3.50;;;14.20;99.90;;;;;;5065165;28;20249;-53
2023/09/16 01:21:53;;;;;;;3.60;3.30;;;14.10;99.90;;;;;;5079403;28;20201;-55
2023/09/16 01:24:24;;;;;;;3.40;3.10;;;14.10;99.90;;;;;;5046630;28;20229;-50
2023/09/16 01:27:08;;;;;;;5.37;3.60;;;14.10;99.90;;;;;;5077815;28;20289;-53
2023/09/16 01:29:38;;;;;;;4.23;3.90;;;14.10;99.90;;;;;;5080533;28;20561;-51
2023/09/16 01:32:08;;;;;;;4.13;3.53;;;14.10;99.90;;;;;;5076745;28;20233;-53
2023/09/16 01:34:41;;;;;;;3.60;3.37;;;14.10;99.90;;;;;;5080096;28;20249;-51
2023/09/16 01:37:13;;;;;;;4.67;4.17;;;14.00;99.90;;;;;;5078754;28;20236;-50
2023/09/16 01:39:43;;;;;;;4.63;3.53;;;14.00;99.90;;;;;;5044467;28;20216;-51
2023/09/16 01:42:18;;;;;;;3.77;3.17;;;14.00;99.90;;;;;;5079535;28;20191;-50
2023/09/16 01:44:49;;;;;;;4.83;3.60;;;14.00;99.90;;;;;;5082979;28;20629;-48
2023/09/16 01:47:17;;;;;;;4.03;3.73;;;14.00;99.90;;;;;;5072404;28;20201;-51
2023/09/16 01:49:50;;;;;;;3.80;3.50;;;14.00;99.90;;;;;;5083927;28;20194;-53
2023/09/16 01:52:20;;;;;;;6.07;3.80;;;13.90;99.90;;;;;;5080754;28;20205;-52
2023/09/16 01:54:49;;;;;;;8.63;4.60;;;13.90;99.90;;;;;;5045580;28;20225;-50
2023/09/16 01:57:21;;;;;;;5.03;3.90;;;13.90;99.90;;;;;;5074745;28;20221;-49
2023/09/16 01:59:54;;;;;;;5.13;3.60;;;13.90;99.90;;;;;;5082535;28;20221;-54
2023/09/16 02:02:22;;;;;;;3.70;3.40;;;13.90;99.90;;;;;;5070087;28;20228;-54
2023/09/16 02:04:53;;;;;;;4.10;3.70;;;13.90;99.90;;;;;;5082951;28;20221;-52
2023/09/16 02:07:21;;;;;;;4.60;3.60;;;13.90;99.90;;;;;;5081236;28;20271;-53
2023/09/16 02:09:49;;;;;;;4.47;4.00;;;13.90;99.90;;;;;;5042620;28;20573;-52
2023/09/16 02:12:18;;;;;;;4.03;3.70;;;13.90;99.90;;;;;;5079654;28;20664;-51
2023/09/16 02:14:49;;;;;;;3.93;3.57;;;13.90;99.90;;;;;;5082459;28;20214;-51
2023/09/16 02:17:17;;;;;;;4.57;4.10;;;13.90;99.90;;;;;;5070385;28;20259;-49
2023/09/16 02:19:53;;;;;;;4.40;4.00;;;13.90;99.90;;;;;;5079654;28;20680;-54
2023/09/16 02:22:21;;;;;;;4.87;3.97;;;13.80;99.90;;;;;;5083146;28;20200;-51
2023/09/16 02:24:51;;;;;;;4.77;4.30;;;13.80;99.90;;;;;;5054230;28;20210;-53
2023/09/16 02:27:24;;;;;;;4.23;3.83;;;13.80;99.90;;;;;;5081942;28;20201;-50
2023/09/16 02:29:54;;;;;;;5.50;4.10;;;13.80;99.90;;;;;;5079968;28;20192;-52
2023/09/16 02:32:30;;;;;;;4.70;4.30;;;13.80;99.90;;;;;;5083357;28;20297;-55
2023/09/16 02:35:00;;;;;;;4.57;4.13;;;13.80;99.90;;;;;;5071984;28;20222;-54
2023/09/16 02:37:28;;;;;;;4.53;3.77;;;13.70;99.90;;;;;;5080260;28;20190;-53
2023/09/16 02:39:56;;;;;;;4.77;4.27;;;13.80;99.90;;;;;;5077664;28;20202;-51
2023/09/16 02:42:29;;;;;;;4.47;4.07;;;13.80;99.90;;;;;;5050625;28;20673;-54
2023/09/16 02:45:01;;;;;;;5.53;4.27;;;13.70;99.90;;;;;;5079556;28;20423;-48
2023/09/16 02:47:30;;;;;;;4.47;4.07;;;13.70;99.90;;;;;;5081314;28;20205;-50
2023/09/16 02:49:59;;;;;;;5.00;4.50;;;13.70;99.90;;;;;;5070924;28;20909;-51
2023/09/16 02:52:26;;;;;;;7.30;4.47;;;13.70;99.90;;;;;;5080212;28;20202;-48
2023/09/16 02:54:58;;;;;;;5.10;4.70;;;13.70;99.90;;;;;;5078035;28;20233;-51
2023/09/16 02:57:29;;;;;;;5.07;4.57;;;13.70;99.90;;;;;;5051503;28;20202;-50
2023/09/16 02:59:56;;;;;;;4.97;4.40;;;13.70;99.90;;;;;;5078199;28;20259;-51
2023/09/16 03:02:24;;;;;;;6.33;4.77;;;13.70;99.90;;;;;;5079373;28;20308;-50
2023/09/16 03:04:56;;;;;;;5.40;4.87;;;13.70;99.90;;;;;;5069100;28;20225;-54
2023/09/16 03:07:25;;;;;;;4.90;4.30;;;13.70;99.90;;;;;;5080959;28;20209;-52
2023/09/16 03:09:54;;;;;;;5.30;4.80;;;13.60;99.90;;;;;;5075485;28;20190;-51
2023/09/16 03:12:24;;;;;;;5.03;4.63;;;13.70;99.90;;;;;;5047959;28;20303;-54
2023/09/16 03:14:54;;;;;;;5.10;4.70;;;13.60;99.90;;;;;;5078813;28;20202;-54
2023/09/16 03:17:21;;;;;;;4.80;4.33;;;13.70;99.90;;;;;;5082132;28;20218;-52
2023/09/16 03:19:51;;;;;;;4.83;4.43;;;13.60;99.90;;;;;;5077766;28;20221;-54
2023/09/16 03:22:19;;;;;;;5.20;4.80;;;13.60;99.90;;;;;;5071911;28;20206;-51
2023/09/16 03:24:49;;;;;;;5.30;4.53;;;13.60;99.90;;;;;;5079653;28;20206;-52
2023/09/16 03:27:17;;;;;;;4.70;4.30;;;13.60;99.90;;;;;;5051862;28;20202;-53
2023/09/16 03:29:45;;;;;;;7.80;4.90;;;13.60;99.90;;;;;;5069793;28;20205;-53
2023/09/16 03:32:15;;;;;;;8.97;5.57;;;13.60;99.90;;;;;;5079337;28;20221;-54
2023/09/16 03:34:44;;;;;;;5.63;4.70;;;13.60;99.90;;;;;;5076962;28;20214;-52
2023/09/16 03:37:14;;;;;;;8.33;5.73;;;13.60;99.90;;;;;;5069671;28;20220;-50
2023/09/16 03:39:48;;;;;;;5.23;4.83;;;13.60;99.90;;;;;;5079003;28;20190;-50
2023/09/16 03:42:18;;;;;;;5.87;5.23;;;13.60;99.90;;;;;;5081051;28;20225;-52
2023/09/16 03:44:51;;;;;;;5.23;4.83;;;13.50;99.90;;;;;;5047086;28;20222;-53
2023/09/16 03:47:24;;;;;;;5.50;4.90;;;13.50;99.90;;;;;;5079829;28;20194;-49
2023/09/16 03:49:53;;;;;;;6.87;5.17;;;13.50;99.90;;;;;;5074634;28;20247;-54
2023/09/16 03:52:21;;;;;;;5.33;4.87;;;13.50;99.90;;;;;;5080514;28;20194;-50
2023/09/16 03:54:51;;;;;;;5.87;5.13;;;13.50;99.90;;;;;;5066898;28;20536;-52
2023/09/16 03:57:22;;;;;;;6.70;4.97;;;13.50;99.90;;;;;;5080419;28;20210;-52
2023/09/16 03:59:51;;;;;;;6.97;5.20;;;13.50;99.90;;;;;;5042059;28;20228;-53
2023/09/16 04:02:20;;;;;;;6.13;4.87;;;13.50;99.90;;;;;;5069358;28;20588;-50
2023/09/16 04:04:51;;;;;;;5.57;4.67;;;13.50;99.90;;;;;;5078594;28;20835;-54
2023/09/16 04:07:21;;;;;;;5.60;4.83;;;13.50;99.90;;;;;;5072799;28;20200;-51
2023/09/16 04:09:52;;;;;;;5.47;4.93;;;13.50;99.90;;;;;;5069229;28;20198;-54
2023/09/16 04:12:23;;;;;;;5.40;4.90;;;13.50;99.90;;;;;;5080169;28;20197;-50
2023/09/16 04:14:54;;;;;;;7.70;5.73;;;13.50;99.90;;;;;;5045967;28;20225;-51
2023/09/16 04:17:27;;;;;;;5.37;4.87;;;13.50;99.90;;;;;;5080348;28;20680;-53
2023/09/16 04:19:57;;;;;;;5.63;5.13;;;13.50;99.90;;;;;;5067057;28;21016;-54
2023/09/16 04:22:28;;;;;;;7.10;5.30;;;13.50;99.90;;;;;;5069170;28;20623;-52
2023/09/16 04:24:57;;;;;;;7.43;5.27;;;13.50;99.90;;;;;;5067233;28;20314;-49
2023/09/16 04:27:30;;;;;;;7.73;5.33;;;13.50;99.90;;;;;;5079756;28;20208;-51
2023/09/16 04:30:03;;;;;;;5.80;5.27;;;13.50;99.90;;;;;;5046292;28;21971;-52
2023/09/16 04:32:33;;;;;;;7.60;5.33;;;13.50;99.90;;;;;;5079996;28;20734;-52
2023/09/16 04:35:04;;;;;;;5.57;4.87;;;13.50;99.90;;;;;;5077491;28;20942;-53
2023/09/16 04:37:36;;;;;;;6.03;5.23;;;13.50;99.90;;;;;;5069772;28;20202;-47
2023/09/16 04:40:09;;;;;;;7.33;5.47;;;13.50;99.90;;;;;;5072299;28;20216;-48
2023/09/16 04:42:43;;;;;;;6.90;5.13;;;13.50;99.90;;;;;;5078898;28;20190;-51
2023/09/16 04:45:15;;;;;;;9.93;5.33;;;13.50;99.90;;;;;;5079195;28;20217;-52
2023/09/16 04:47:45;;;;;;;6.73;5.70;;;13.40;99.90;;;;;;5049068;28;20277;-51
2023/09/16 04:50:16;;;;;;;6.30;5.13;;;13.40;99.90;;;;;;5079469;28;20194;-53
2023/09/16 04:52:46;;;;;;;5.47;4.93;;;13.40;99.90;;;;;;5074566;28;20186;-53
2023/09/16 04:55:15;;;;;;;5.23;4.73;;;13.40;99.90;;;;;;5093591;28;20226;-53
2023/09/16 04:57:46;;;;;;;5.87;5.33;;;13.40;99.90;;;;;;5075738;28;20347;-53
2023/09/16 05:00:18;;;;;;;6.47;5.33;;;13.40;99.90;;;;;;5061743;28;20218;-53
2023/09/16 05:02:50;;;;;;;6.00;5.40;;;13.40;99.90;;;;;;5047583;28;20210;-55
2023/09/16 05:05:18;;;;;;;6.27;5.67;;;13.40;99.90;;;;;;5067919;28;20257;-51
2023/09/16 05:07:49;;;;;;;5.93;5.33;;;13.40;99.90;;;;;;5070269;28;20195;-47
2023/09/16 05:10:23;;;;;;;5.70;5.20;;;13.40;99.90;;;;;;5067770;28;20289;-47
2023/09/16 05:12:53;;;;;;;6.27;5.73;;;13.40;99.90;;;;;;5083179;28;20198;-51
2023/09/16 05:15:21;;;;;;;5.73;5.13;;;13.40;99.90;;;;;;5059046;28;20275;-51
2023/09/16 05:17:51;;;;;;;7.07;4.97;;;13.40;99.90;;;;;;5045985;28;20209;-50
2023/09/16 05:20:19;;;;;;;5.83;5.23;;;13.40;99.90;;;;;;5064936;28;20214;-50
2023/09/16 05:22:50;;;;;;;6.70;5.20;;;13.40;99.90;;;;;;5070892;28;20968;-53
2023/09/16 05:25:22;;;;;;;7.63;6.83;;;13.40;99.90;;;;;;5072375;28;20233;-52
2023/09/16 05:27:50;;;;;;;6.50;5.90;;;13.40;99.90;;;;;;5077731;28;20937;-53
2023/09/16 05:30:18;;;;;;;6.57;6.00;;;13.40;99.90;;;;;;5080963;28;20283;-53
2023/09/16 05:32:52;;;;;;;5.87;5.47;;;13.40;99.90;;;;;;5046981;28;20322;-53
2023/09/16 05:35:20;;;;;;;5.83;5.23;;;13.40;99.90;;;;;;5087704;28;20683;-52
2023/09/16 05:37:51;;;;;;;6.70;5.20;;;13.50;99.90;;;;;;5060301;28;20206;-52
2023/09/16 05:40:20;;;;;;;7.20;5.30;;;13.50;99.90;;;;;;5072591;28;20218;-53
2023/09/16 05:42:48;;;;;;;6.90;5.77;;;13.50;99.90;;;;;;5079089;28;20285;-50
2023/09/16 05:45:19;;;;;;;9.07;5.40;;;13.50;99.90;;;;;;5081368;28;20228;-50
2023/09/16 05:47:49;;;;;;;5.50;4.93;;;13.50;99.90;;;;;;5045426;28;23800;-52
2023/09/16 05:50:20;;;;;;;5.83;5.10;;;13.60;99.90;;;;;;5069573;28;20225;-53
2023/09/16 05:52:48;;;;;;;5.83;5.03;;;13.60;99.90;;;;;;5058353;28;20205;-47
2023/09/16 05:55:22;;;;;;;5.20;4.70;;;13.60;99.90;;;;;;5070707;28;20253;-53
2023/09/16 05:57:54;;;;;;;5.10;4.60;;;13.60;99.90;;;;;;5076200;28;20201;-51
2023/09/16 06:00:24;;;;;;;6.20;4.80;;;13.70;99.90;;;;;;5072040;28;20209;-54
2023/09/16 06:02:53;;;;;;;5.60;5.20;;;13.70;99.90;;;;;;5078323;28;20225;-50
2023/09/16 06:05:34;;;;;;;6.10;5.10;;;13.70;99.90;;;;;;5047728;28;20216;-54
2023/09/16 06:08:09;;;;;;;5.77;5.37;;;13.80;99.90;;;;;;5069677;28;20205;-49
2023/09/16 06:10:37;;;;;;;8.17;5.40;;;13.80;99.90;;;;;;5057692;28;20206;-48
2023/09/16 06:13:05;;;;;;;5.80;5.23;;;13.90;99.90;;;;;;5081577;28;20206;-47
2023/09/16 06:15:37;;;;;;;8.73;5.57;;;13.90;99.90;;;;;;5072883;28;20220;-53
2023/09/16 06:18:08;;;;;;;5.30;4.90;;;14.00;99.90;;;;;;5081643;28;20304;-49
2023/09/16 06:20:39;;;;;;;6.23;4.57;;;14.10;99.90;;;;;;5041173;28;20222;-51
2023/09/16 06:23:07;;;;;;;6.03;5.03;;;14.10;99.90;;;;;;5073988;28;20225;-49
2023/09/16 06:25:39;;;;;;;6.27;4.67;;;14.10;99.90;;;;;;5052316;28;20229;-54
2023/09/16 06:28:08;;;;;;;4.47;3.87;;;14.20;99.90;;;;;;5078281;28;20205;-49
2023/09/16 06:30:37;;;;;;;4.93;4.43;;;14.20;99.90;;;;;;5070457;28;20858;-49
2023/09/16 06:33:10;;;;;;;5.50;4.97;;;14.30;99.90;;;;;;5081847;28;20241;-53
2023/09/16 06:35:39;;;;;;;5.50;5.00;;;14.40;99.90;;;;;;5041891;28;20225;-50
2023/09/16 06:38:06;;;;;;;7.13;5.30;;;14.50;99.90;;;;;;5074088;28;20212;-48
2023/09/16 06:40:33;;;;;;;6.23;5.00;;;14.50;99.90;;;;;;5062113;28;20202;-54
2023/09/16 06:43:00;;;;;;;5.30;4.90;;;14.60;99.90;;;;;;5065987;28;20612;-54
2023/09/16 06:45:29;;;;;;;5.73;5.13;;;14.70;99.90;;;;;;5075558;28;20263;-55
2023/09/16 06:47:57;;;;;;;7.07;5.23;;;14.70;99.90;;;;;;5074213;28;20264;-49
2023/09/16 06:50:24;;;;;;;13.73;4.77;;;14.80;99.90;;;;;;5068226;28;20190;-54
2023/09/16 06:52:52;;;;;;;5.37;4.83;;;14.90;99.90;;;;;;5055877;28;20206;-47
2023/09/16 06:55:18;;;;;;;4.97;4.57;;;15.00;99.90;;;;;;5071105;28;20221;-51
2023/09/16 06:57:45;;;;;;;7.43;4.77;;;15.10;99.90;;;;;;5063943;28;20211;-46
2023/09/16 07:00:14;;;;;;;5.30;4.90;;;15.10;99.90;;;;;;5081560;28;20316;-50
2023/09/16 07:02:41;;;;;;;4.53;4.23;;;15.20;99.90;;;;;;5070596;28;20991;-47
2023/09/16 07:05:10;;;;;;;7.77;5.00;;;15.30;99.90;;;;;;5082518;28;20279;-51
2023/09/16 07:07:37;;;;;;;5.27;4.60;;;15.30;99.90;;;;;;5043230;28;20600;-46
2023/09/16 07:10:06;;;;;;;5.13;4.20;;;15.40;99.90;;;;;;5065944;28;20194;-49
2023/09/16 07:12:33;;;;;;;5.33;4.53;;;15.50;99.90;;;;;;5066358;28;20209;-48
2023/09/16 07:14:59;;;;;;;5.53;4.77;;;15.60;99.90;;;;;;5081426;28;20796;-50
2023/09/16 07:17:26;;;;;;;5.53;4.60;;;15.70;99.90;;;;;;5075376;28;20291;-52
2023/09/16 07:19:53;;;;;;;5.13;4.63;;;15.70;99.90;;;;;;5071020;28;20190;-46
2023/09/16 07:22:20;;;;;;;5.23;4.50;;;15.80;99.90;;;;;;5075262;28;20206;-53
2023/09/16 07:24:47;;;;;;;6.00;4.70;;;15.90;99.90;;;;;;5046319;28;20225;-50
2023/09/16 07:27:15;;;;;;;5.97;4.63;;;16.00;99.90;;;;;;5075505;28;20787;-51
2023/09/16 07:29:42;;;;;;;5.23;4.67;;;16.00;99.90;;;;;;5071576;28;20285;-45
2023/09/16 07:32:09;;;;;;;6.00;4.67;;;16.10;99.90;;;;;;5082224;28;20266;-52
2023/09/16 07:34:36;;;;;;;5.40;4.37;;;16.20;99.90;;;;;;5070548;28;20759;-52
2023/09/16 07:37:03;;;;;;;5.23;4.83;;;16.30;99.90;;;;;;5084457;28;20255;-50
2023/09/16 07:39:30;;;;;;;4.97;4.30;;;16.40;99.90;;;;;;5039780;28;20217;-48
2023/09/16 07:41:58;;;;;;;5.60;4.40;;;16.40;99.90;;;;;;5071604;28;20230;-49
2023/09/16 07:44:26;;;;;;;5.63;4.50;;;16.50;99.90;;;;;;5072794;28;20244;-52
2023/09/16 07:46:53;;;;;;;7.13;4.83;;;16.50;99.90;;;;;;5080782;28;20212;-51
2023/09/16 07:49:20;;;;;;;6.37;4.27;;;16.60;99.90;;;;;;5081422;28;20668;-51
2023/09/16 07:51:48;;;;;;;8.13;4.70;;;16.70;99.90;;;;;;5069112;28;20194;-53
2023/09/16 07:54:15;;;;;;;4.90;4.50;;;16.80;99.90;;;;;;5047554;28;20260;-50
2023/09/16 07:56:42;;;;;;;4.77;3.80;;;16.90;99.90;;;;;;5058640;28;20648;-51
2023/09/16 07:59:09;;;;;;;5.53;4.23;;;17.00;99.90;;;;;;5068165;28;20738;-52
2023/09/16 08:01:37;;;;;;;4.90;4.50;;;17.10;99.90;;;;;;5073286;28;20497;-49
2023/09/16 08:04:05;;;;;;;4.43;3.97;;;17.20;99.90;;;;;;5073719;28;20316;-53
2023/09/16 08:06:32;;;;;;;4.10;3.70;;;17.20;99.90;;;;;;5071665;28;20208;-53
2023/09/16 08:08:59;;;;;;;4.63;4.17;;;17.30;99.90;;;;;;5046307;28;20315;-52
2023/09/16 08:11:26;;;;;;;4.93;4.07;;;17.40;99.90;;;;;;5071121;28;20210;-54
2023/09/16 08:13:52;;;;;;;5.63;4.10;;;17.40;99.90;;;;;;5074585;28;20215;-52
2023/09/16 08:16:19;;;;;;;4.77;4.33;;;17.50;99.90;;;;;;5070617;28;20186;-47
2023/09/16 08:18:47;;;;;;;4.50;3.83;;;17.60;99.90;;;;;;5080652;28;20259;-52
2023/09/16 08:21:14;;;;;;;4.23;3.83;;;17.70;99.90;;;;;;5078625;28;20214;-52
2023/09/16 08:23:41;;;;;;;4.63;4.23;;;17.70;99.90;;;;;;5080711;28;20596;-45
2023/09/16 08:26:08;;;;;;;6.03;4.73;;;17.80;99.90;;;;;;5038191;28;20235;-44
2023/09/16 08:28:35;;;;;;;4.33;3.93;;;17.90;99.90;;;;;;5081438;28;20194;-51
2023/09/16 08:31:03;;;;;;;5.50;4.00;;;17.90;99.90;;;;;;5063572;28;20279;-58
2023/09/16 08:33:29;;;;;;;4.30;3.90;;;18.00;99.90;;;;;;5080964;28;20293;-47
2023/09/16 08:35:58;;;;;;;4.83;4.30;;;18.10;99.90;;;;;;5079376;28;20213;-59
2023/09/16 08:38:25;;;;;;;3.97;3.57;;;18.10;99.90;;;;;;5077554;28;20195;-50
2023/09/16 08:41:01;;;;;;;4.37;3.70;;;18.20;99.90;;;;;;5039138;28;20287;-58
2023/09/16 08:43:33;;;;;;;4.47;3.93;;;18.30;99.90;;;;;;5069622;28;20198;-49
2023/09/16 08:46:03;;;;;;;4.67;4.00;;;18.40;99.90;;;;;;5080091;28;20274;-49
2023/09/16 08:48:33;;;;;;;4.40;3.70;;;18.50;99.90;;;;;;5072702;28;20297;-53
2023/09/16 08:51:02;;;;;;;3.97;3.53;;;18.70;99.90;;;;;;5083675;28;20194;-51
2023/09/16 08:53:32;;;;;;;3.50;3.20;;;18.80;99.90;;;;;;5083812;28;20197;-46
2023/09/16 08:56:00;;;;;;;5.30;4.10;;;18.90;99.90;;;;;;5047593;28;20582;-47
2023/09/16 08:58:27;;;;;;;3.40;3.10;;;18.90;99.90;;;;;;5076265;28;20198;-48
2023/09/16 09:00:54;;;;;;;3.73;3.43;;;19.00;99.90;;;;;;5077968;28;20204;-51
2023/09/16 09:03:21;;;;;;;3.90;3.43;;;19.00;99.90;;;;;;5076092;28;20225;-49
2023/09/16 09:05:49;;;;;;;4.90;3.47;;;19.10;99.90;;;;;;5081770;28;20221;-55
2023/09/16 09:08:17;;;;;;;3.87;3.40;;;19.20;99.90;;;;;;5084875;28;20285;-50
2023/09/16 09:10:44;;;;;;;3.40;3.10;;;19.20;99.90;;;;;;5045804;28;20199;-47
2023/09/16 09:13:14;;;;;;;4.80;3.30;;;19.30;99.90;;;;;;5085847;28;20191;-50
2023/09/16 09:15:41;;;;;;;3.83;3.53;;;19.40;99.90;;;;;;5072876;28;20735;-47
2023/09/16 09:18:08;;;;;;;9.13;3.70;;;19.50;99.90;;;;;;5076319;28;20560;-50
2023/09/16 09:20:36;;;;;;;5.60;3.40;;;19.60;99.90;;;;;;5082932;28;20285;-51
2023/09/16 09:23:03;;;;;;;6.20;3.37;;;19.50;99.90;;;;;;5083783;28;20213;-48
2023/09/16 09:25:32;;;;;;;4.67;3.97;;;19.60;99.90;;;;;;5067469;28;20904;-54
2023/09/16 09:27:59;;;;;;;3.77;3.47;;;19.60;99.90;;;;;;5072866;28;20182;-47
2023/09/16 09:30:27;;;;;;;4.37;3.30;;;19.70;99.90;;;;;;5075312;28;20270;-53
2023/09/16 09:32:55;;;;;;;3.97;3.57;;;19.80;99.90;;;;;;5082950;28;20196;-53
2023/09/16 09:35:23;;;;;;;3.57;3.27;;;19.80;99.90;;;;;;5074902;28;20226;-52
2023/09/16 09:37:50;;;;;;;3.10;2.90;;;19.80;99.90;;;;;;5080352;28;20210;-53
2023/09/16 09:40:18;;;;;;;3.80;3.23;;;19.90;99.90;;;;;;5084730;28;20190;-52
2023/09/16 09:42:47;;;;;;;3.80;3.50;;;20.10;99.90;;;;;;5041785;28;20230;-52
2023/09/16 09:45:15;;;;;;;3.87;3.57;;;20.20;99.90;;;;;;5069221;28;20245;-49
2023/09/16 09:47:43;;;;;;;4.00;3.70;;;20.20;99.90;;;;;;5080722;28;20198;-50
2023/09/16 09:50:14;;;;;;;3.43;3.13;;;20.40;99.90;;;;;;5075760;28;20285;-54
2023/09/16 09:52:46;;;;;;;3.50;3.13;;;20.40;99.90;;;;;;5080850;28;20471;-53
2023/09/16 09:55:15;;;;;;;3.40;3.10;;;20.40;99.90;;;;;;5083505;28;20579;-50
2023/09/16 09:57:45;;;;;;;3.37;3.10;;;20.50;99.90;;;;;;5048446;28;20194;-53
2023/09/16 10:00:15;;;;;;;6.03;3.60;;;20.60;99.90;;;;;;5074135;28;20275;-49
2023/09/16 10:02:43;;;;;;;4.47;3.27;;;20.80;99.90;;;;;;5080540;28;20218;-49
2023/09/16 10:05:14;;;;;;;4.57;3.23;;;20.90;99.90;;;;;;5073760;28;20234;-51
2023/09/16 10:07:42;;;;;;;3.77;3.43;;;20.90;99.90;;;;;;5078516;28;20190;-50
2023/09/16 10:10:13;;;;;;;3.73;3.10;;;21.00;99.90;;;;;;5084518;28;20197;-47
2023/09/16 10:12:41;;;;;;;8.27;2.80;;;21.10;99.90;;;;;;5049372;28;20208;-49
2023/09/16 10:15:08;;;;;;;3.33;3.07;;;21.20;99.90;;;;;;5084220;28;20218;-49
2023/09/16 10:17:37;;;;;;;2.70;2.50;;;21.20;99.90;;;;;;5071222;28;20209;-48
2023/09/16 10:20:04;;;;;;;3.20;3.00;;;21.40;99.90;;;;;;5067694;28;20206;-51
2023/09/16 10:22:31;;;;;;;3.25;2.70;;;21.50;99.90;;;;;;5081720;28;20254;-52
2023/09/16 10:24:58;;;;;;;3.72;3.47;;;21.60;99.90;;;;;;5082423;28;20402;-50
2023/09/16 10:27:32;;;;;;;3.28;3.08;;;21.60;99.90;;;;;;5075928;28;20552;-51
2023/09/16 10:30:02;;;;;;;3.13;2.60;;;21.80;99.90;;;;;;5073190;28;20229;-50
2023/09/16 10:32:29;;;;;;;4.30;3.30;;;21.90;99.90;;;;;;5062509;28;20824;-52
2023/09/16 10:35:01;;;;;;;3.58;2.95;;;21.90;99.90;;;;;;5073812;28;20624;-48
2023/09/16 10:37:29;;;;;;;3.10;2.90;;;22.00;99.90;;;;;;5071692;28;20913;-50
2023/09/16 10:39:57;;;;;;;5.95;3.20;;;22.00;99.90;;;;;;5083570;28;20198;-50
2023/09/16 10:42:26;;;;;;;3.10;2.90;;;22.10;99.90;;;;;;5079202;28;20213;-48
2023/09/16 10:44:56;;;;;;;3.38;3.08;;;22.20;99.90;;;;;;5052602;28;20222;-51
2023/09/16 10:47:24;;;;;;;3.10;2.88;;;22.30;99.90;;;;;;5071172;28;20222;-52
2023/09/16 10:49:51;;;;;;;2.85;2.65;;;22.50;99.90;;;;;;5073567;28;20205;-49
2023/09/16 10:52:26;;;;;;;3.05;2.53;;;22.60;99.90;;;;;;5073910;28;20194;-53
2023/09/16 10:55:01;;;;;;;3.03;2.72;;;22.60;99.90;;;;;;5082878;28;20220;-49
2023/09/16 10:57:33;;;;;;;3.05;2.85;;;22.60;99.90;;;;;;5079604;28;20194;-54
2023/09/16 11:00:04;;;;;;;2.78;2.38;;;22.60;99.90;;;;;;5049728;28;20373;-50
2023/09/16 11:02:36;;;;;;;2.75;2.55;;;22.70;99.90;;;;;;5070071;28;20218;-52
2023/09/16 11:05:03;;;;;;;2.55;2.35;;;22.70;99.90;;;;;;5083570;28;20213;-50
2023/09/16 11:07:31;;;;;;;2.58;2.38;;;22.80;99.90;;;;;;5067979;28;20194;-51
2023/09/16 11:09:59;;;;;;;4.63;2.83;;;23.00;99.90;;;;;;5081898;28;20190;-52
2023/09/16 11:12:27;;;;;;;2.65;2.50;;;23.00;99.90;;;;;;5079708;28;20220;-48
2023/09/16 11:14:54;;;;;;;3.33;2.70;;;23.10;99.90;;;;;;5052359;28;20222;-52
2023/09/16 11:17:23;;;;;;;2.33;2.22;;;23.20;99.90;;;;;;5081138;28;20690;-52
2023/09/16 11:19:50;;;;;;;4.22;2.40;;;23.10;99.90;;;;;;5072566;28;20205;-53
2023/09/16 11:22:17;;;;;;;2.72;2.53;;;23.20;99.90;;;;;;5071041;28;20214;-52
2023/09/16 11:24:53;;;;;;;4.57;2.63;;;23.30;99.90;;;;;;5080760;28;20202;-49
2023/09/16 11:27:20;;;;;;;2.67;2.47;;;23.40;99.90;;;;;;5080190;28;20197;-53
2023/09/16 11:29:50;;;;;;;2.38;2.28;;;23.30;99.90;;;;;;5081482;28;20310;-48
2023/09/16 11:32:19;;;;;;;2.20;2.10;;;23.50;99.90;;;;;;5048360;28;20218;-52
2023/09/16 11:34:46;;;;;;;2.70;2.50;;;23.60;99.90;;;;;;5072718;28;20271;-49
2023/09/16 11:37:13;;;;;;;4.65;2.50;;;23.60;99.90;;;;;;5071742;28;20221;-50
2023/09/16 11:39:43;;;;;;;2.67;2.33;;;23.60;99.90;;;;;;5072608;28;20198;-49
2023/09/16 11:42:12;;;;;;;2.75;2.55;;;23.60;99.90;;;;;;5082565;28;20679;-48
2023/09/16 11:44:39;;;;;;;2.20;2.10;;;23.60;99.90;;;;;;5072291;28;20210;-50
2023/09/16 11:47:09;;;;;;;3.30;3.00;;;23.60;99.90;;;;;;5049017;28;20240;-49
2023/09/16 11:49:36;;;;;;;2.95;2.75;;;23.60;99.90;;;;;;5069956;28;20204;-50
2023/09/16 11:52:03;;;;;;;3.35;3.05;;;23.70;99.90;;;;;;5072546;28;20236;-51
2023/09/16 11:54:30;;;;;;;4.65;2.97;;;23.70;99.90;;;;;;5078362;28;20201;-50
2023/09/16 11:56:58;;;;;;;3.55;2.70;;;23.80;99.90;;;;;;5082141;28;20198;-47
2023/09/16 11:59:28;;;;;;;3.67;2.97;;;23.90;99.90;;;;;;5071106;28;20212;-52
2023/09/16 12:01:55;;;;;;;3.70;3.40;;;23.90;99.90;;;;;;5050865;28;20233;-50
2023/09/16 12:04:23;;;;;;;2.80;2.60;;;24.00;99.90;;;;;;5073512;28;20225;-49
2023/09/16 12:06:51;;;;;;;2.92;2.70;;;24.00;99.90;;;;;;5080087;28;20206;-53
2023/09/16 12:09:21;;;;;;;3.03;2.83;;;24.00;99.90;;;;;;5069879;28;20210;-51
2023/09/16 12:11:50;;;;;;;2.83;2.60;;;24.10;99.90;;;;;;5081035;28;20247;-53
2023/09/16 12:14:17;;;;;;;3.40;2.80;;;24.10;99.90;;;;;;5080277;28;20722;-52
2023/09/16 12:16:45;;;;;;;6.63;3.17;;;24.20;99.90;;;;;;5049740;28;20210;-47
2023/09/16 12:19:12;;;;;;;3.13;2.78;;;24.20;99.90;;;;;;5081010;28;20627;-52
2023/09/16 12:21:46;;;;;;;2.92;2.72;;;24.20;99.90;;;;;;5069949;28;20218;-52
2023/09/16 12:24:17;;;;;;;3.40;3.08;;;24.30;99.90;;;;;;5071688;28;20221;-48
2023/09/16 12:26:45;;;;;;;4.60;2.80;;;24.30;99.90;;;;;;5068593;28;20578;-45
2023/09/16 12:29:12;;;;;;;2.97;2.78;;;24.30;99.90;;;;;;5079339;28;20186;-53
2023/09/16 12:31:39;;;;;;;3.67;2.50;;;24.30;99.90;;;;;;5077296;28;20198;-50
2023/09/16 12:34:07;;;;;;;3.03;2.80;;;24.40;99.90;;;;;;5055280;28;20201;-52
2023/09/16 12:36:34;;;;;;;3.50;2.63;;;24.50;99.90;;;;;;5072272;28;20198;-53
2023/09/16 12:39:02;;;;;;;3.25;2.88;;;24.60;99.90;;;;;;5062786;28;20198;-50
2023/09/16 12:41:30;;;;;;;2.60;2.40;;;24.60;99.90;;;;;;5081564;28;20278;-52
2023/09/16 12:43:58;;;;;;;3.03;2.80;;;24.60;99.90;;;;;;5077625;28;20658;-49
2023/09/16 12:46:27;;;;;;;3.08;2.88;;;24.70;99.90;;;;;;5081181;28;20198;-55
2023/09/16 12:48:55;;;;;;;3.33;2.40;;;24.70;99.90;;;;;;5045896;28;20210;-51
2023/09/16 12:51:24;;;;;;;2.63;2.42;;;24.80;99.90;;;;;;5072891;28;20202;-52
2023/09/16 12:53:52;;;;;;;3.35;3.00;;;24.80;99.90;;;;;;5072571;28;20236;-47
2023/09/16 12:56:19;;;;;;;2.80;2.60;;;24.80;99.90;;;;;;5079766;28;20210;-57
2023/09/16 12:58:48;;;;;;;2.33;2.13;;;24.80;99.90;;;;;;5079303;28;20198;-47
2023/09/16 13:01:19;;;;;;;2.78;2.42;;;24.90;99.90;;;;;;5080548;28;20189;-56